sensor_id;sensor_type;location;lat;lon;timestamp;pressure;altitude;pressure_sealevel;temperature;humidity
26859;BME280;14429;48.346;16.338;2023-12-20T00:00:50;99679.63;;;11.00;58.74
26859;BME280;14429;48.346;16.338;2023-12-20T00:03:15;99688.59;;;10.99;58.71
26859;BME280;14429;48.346;16.338;2023-12-20T00:05:40;99682.00;;;8.00;50.97
26859;BME280;14429;48.346;16.338;2023-12-20T00:08:07;99677.50;;;10.05;60.95
26859;BME280;14429;48.346;16.338;2023-12-20T00:10:33;99670.75;;;10.50;60.12
26859;BME280;14429;48.346;16.338;2023-12-20T00:12:58;99663.31;;;10.67;59.65
26859;BME280;14429;48.346;16.338;2023-12-20T00:15:23;99647.53;;;10.40;59.94
26859;BME280;14429;48.346;16.338;2023-12-20T00:17:49;99656.59;;;10.62;59.87
26859;BME280;14429;48.346;16.338;2023-12-20T00:20:14;99664.72;;;10.73;59.39
26859;BME280;14429;48.346;16.338;2023-12-20T00:22:40;99661.81;;;10.76;59.23
26859;BME280;14429;48.346;16.338;2023-12-20T00:25:07;99658.84;;;10.43;59.77
26859;BME280;14429;48.346;16.338;2023-12-20T00:27:32;99659.78;;;9.66;53.00
26859;BME280;14429;48.346;16.338;2023-12-20T00:29:58;99679.94;;;6.84;53.16
26859;BME280;14429;48.346;16.338;2023-12-20T00:32:23;99656.84;;;9.30;63.02
26859;BME280;14429;48.346;16.338;2023-12-20T00:34:49;99659.22;;;9.35;61.09
26859;BME280;14429;48.346;16.338;2023-12-20T00:37:14;99667.16;;;9.48;60.73
26859;BME280;14429;48.346;16.338;2023-12-20T00:39:39;99656.63;;;9.73;59.29
26859;BME280;14429;48.346;16.338;2023-12-20T00:42:06;99654.53;;;8.98;50.28
26859;BME280;14429;48.346;16.338;2023-12-20T00:44:32;99664.28;;;9.25;63.15
26859;BME280;14429;48.346;16.338;2023-12-20T00:46:57;99669.53;;;10.05;61.64
26859;BME280;14429;48.346;16.338;2023-12-20T00:49:23;99661.94;;;9.73;61.72
26859;BME280;14429;48.346;16.338;2023-12-20T00:51:48;99657.91;;;9.28;62.49
26859;BME280;14429;48.346;16.338;2023-12-20T00:54:13;99673.25;;;10.02;61.37
26859;BME280;14429;48.346;16.338;2023-12-20T00:56:39;99665.31;;;10.27;60.73
26859;BME280;14429;48.346;16.338;2023-12-20T00:59:05;99653.72;;;10.40;60.29
26859;BME280;14429;48.346;16.338;2023-12-20T01:01:31;99636.81;;;10.03;59.51
26859;BME280;14429;48.346;16.338;2023-12-20T01:03:56;99618.75;;;10.45;59.87
26859;BME280;14429;48.346;16.338;2023-12-20T01:06:22;99640.31;;;10.54;59.64
26859;BME280;14429;48.346;16.338;2023-12-20T01:08:47;99627.81;;;10.54;59.57
26859;BME280;14429;48.346;16.338;2023-12-20T01:11:12;99628.47;;;10.58;59.37
26859;BME280;14429;48.346;16.338;2023-12-20T01:13:38;99637.09;;;10.61;59.57
26859;BME280;14429;48.346;16.338;2023-12-20T01:16:05;99627.06;;;10.52;59.30
26859;BME280;14429;48.346;16.338;2023-12-20T01:18:30;99618.44;;;9.86;60.54
26859;BME280;14429;48.346;16.338;2023-12-20T01:20:56;99623.22;;;10.32;60.06
26859;BME280;14429;48.346;16.338;2023-12-20T01:23:21;99607.78;;;10.37;59.79
26859;BME280;14429;48.346;16.338;2023-12-20T01:25:47;99612.78;;;10.29;59.84
26859;BME280;14429;48.346;16.338;2023-12-20T01:28:13;99604.78;;;10.29;59.77
26859;BME280;14429;48.346;16.338;2023-12-20T01:30:38;99597.53;;;10.31;59.74
26859;BME280;14429;48.346;16.338;2023-12-20T01:33:05;99607.13;;;10.46;59.42
26859;BME280;14429;48.346;16.338;2023-12-20T01:35:31;99630.91;;;9.34;55.47
26859;BME280;14429;48.346;16.338;2023-12-20T01:37:56;99611.38;;;9.21;60.04
26859;BME280;14429;48.346;16.338;2023-12-20T01:40:21;99602.41;;;10.12;60.44
26859;BME280;14429;48.346;16.338;2023-12-20T01:42:47;99614.56;;;10.16;59.59
26859;BME280;14429;48.346;16.338;2023-12-20T01:45:13;99612.19;;;9.87;60.41
26859;BME280;14429;48.346;16.338;2023-12-20T01:47:38;99599.44;;;9.78;60.53
26859;BME280;14429;48.346;16.338;2023-12-20T01:50:07;99610.06;;;10.04;60.44
26859;BME280;14429;48.346;16.338;2023-12-20T01:52:32;99594.56;;;9.46;61.07
26859;BME280;14429;48.346;16.338;2023-12-20T01:54:57;99576.28;;;9.93;61.04
26859;BME280;14429;48.346;16.338;2023-12-20T01:57:23;99572.59;;;10.20;60.29
26859;BME280;14429;48.346;16.338;2023-12-20T01:59:49;99583.94;;;9.46;61.92
26859;BME280;14429;48.346;16.338;2023-12-20T02:02:14;99575.75;;;8.84;62.82
26859;BME280;14429;48.346;16.338;2023-12-20T02:04:40;99575.16;;;8.92;63.35
26859;BME280;14429;48.346;16.338;2023-12-20T02:07:07;99556.34;;;8.56;61.99
26859;BME280;14429;48.346;16.338;2023-12-20T02:09:33;99544.22;;;8.38;56.11
26859;BME280;14429;48.346;16.338;2023-12-20T02:11:58;99558.38;;;8.92;59.92
26859;BME280;14429;48.346;16.338;2023-12-20T02:14:24;99536.66;;;7.89;63.45
26859;BME280;14429;48.346;16.338;2023-12-20T02:16:49;99534.63;;;9.15;63.73
26859;BME280;14429;48.346;16.338;2023-12-20T02:19:15;99524.56;;;9.20;62.98
26859;BME280;14429;48.346;16.338;2023-12-20T02:21:42;99521.94;;;8.13;54.76
26859;BME280;14429;48.346;16.338;2023-12-20T02:24:07;99507.16;;;9.02;63.22
26859;BME280;14429;48.346;16.338;2023-12-20T02:26:33;99505.59;;;9.50;62.26
26859;BME280;14429;48.346;16.338;2023-12-20T02:28:59;99505.56;;;9.38;61.58
26859;BME280;14429;48.346;16.338;2023-12-20T02:31:25;99503.84;;;9.25;62.32
26859;BME280;14429;48.346;16.338;2023-12-20T02:33:50;99491.16;;;9.67;61.73
26859;BME280;14429;48.346;16.338;2023-12-20T02:36:15;99489.81;;;9.86;61.32
26859;BME280;14429;48.346;16.338;2023-12-20T02:38:42;99487.56;;;10.04;60.59
26859;BME280;14429;48.346;16.338;2023-12-20T02:41:07;99492.88;;;10.04;60.47
26859;BME280;14429;48.346;16.338;2023-12-20T02:43:33;99488.38;;;9.68;60.15
26859;BME280;14429;48.346;16.338;2023-12-20T02:45:58;99488.19;;;10.08;60.17
26859;BME280;14429;48.346;16.338;2023-12-20T02:48:24;99481.38;;;8.90;60.65
26859;BME280;14429;48.346;16.338;2023-12-20T02:50:49;99485.94;;;9.77;61.07
26859;BME280;14429;48.346;16.338;2023-12-20T02:53:14;99484.28;;;7.79;51.01
26859;BME280;14429;48.346;16.338;2023-12-20T02:55:41;99492.00;;;8.64;62.14
26859;BME280;14429;48.346;16.338;2023-12-20T02:58:07;99485.31;;;8.32;51.78
26859;BME280;14429;48.346;16.338;2023-12-20T03:00:32;99482.28;;;8.77;63.34
26859;BME280;14429;48.346;16.338;2023-12-20T03:02:57;99493.06;;;8.48;63.27
26859;BME280;14429;48.346;16.338;2023-12-20T03:05:23;99480.78;;;8.20;53.96
26859;BME280;14429;48.346;16.338;2023-12-20T03:07:48;99484.78;;;9.18;62.43
26859;BME280;14429;48.346;16.338;2023-12-20T03:10:14;99480.56;;;7.68;55.76
26859;BME280;14429;48.346;16.338;2023-12-20T03:12:40;99478.81;;;8.63;63.14
26859;BME280;14429;48.346;16.338;2023-12-20T03:15:06;99476.38;;;9.24;62.82
26859;BME280;14429;48.346;16.338;2023-12-20T03:17:32;99490.34;;;5.39;56.26
26859;BME280;14429;48.346;16.338;2023-12-20T03:19:57;99496.44;;;6.52;58.93
26859;BME280;14429;48.346;16.338;2023-12-20T03:22:23;99494.56;;;5.26;58.31
26859;BME280;14429;48.346;16.338;2023-12-20T03:24:48;99486.75;;;4.38;60.25
26859;BME280;14429;48.346;16.338;2023-12-20T03:27:14;99492.63;;;6.25;69.41
26859;BME280;14429;48.346;16.338;2023-12-20T03:29:40;99477.28;;;6.62;69.34
26859;BME280;14429;48.346;16.338;2023-12-20T03:32:06;99483.31;;;7.24;67.76
26859;BME280;14429;48.346;16.338;2023-12-20T03:34:31;99487.16;;;4.82;60.92
26859;BME280;14429;48.346;16.338;2023-12-20T03:36:57;99463.72;;;6.53;59.45
26859;BME280;14429;48.346;16.338;2023-12-20T03:39:22;99470.44;;;6.13;68.61
26859;BME280;14429;48.346;16.338;2023-12-20T03:41:47;99472.81;;;6.93;58.35
26859;BME280;14429;48.346;16.338;2023-12-20T03:44:13;99472.47;;;7.13;64.57
26859;BME280;14429;48.346;16.338;2023-12-20T03:46:40;99476.41;;;6.62;67.97
26859;BME280;14429;48.346;16.338;2023-12-20T03:49:05;99467.97;;;8.26;66.28
26859;BME280;14429;48.346;16.338;2023-12-20T03:51:30;99471.13;;;7.35;65.56
26859;BME280;14429;48.346;16.338;2023-12-20T03:53:56;99480.16;;;4.98;60.49
26859;BME280;14429;48.346;16.338;2023-12-20T03:56:21;99472.25;;;7.02;62.02
26859;BME280;14429;48.346;16.338;2023-12-20T03:58:46;99462.16;;;8.33;65.82
26859;BME280;14429;48.346;16.338;2023-12-20T04:01:12;99466.44;;;8.76;64.36
26859;BME280;14429;48.346;16.338;2023-12-20T04:03:39;99467.72;;;7.04;57.94
26859;BME280;14429;48.346;16.338;2023-12-20T04:06:04;99468.91;;;6.24;57.39
26859;BME280;14429;48.346;16.338;2023-12-20T04:08:29;99463.66;;;7.55;64.89
26859;BME280;14429;48.346;16.338;2023-12-20T04:10:55;99462.91;;;8.49;65.07
26859;BME280;14429;48.346;16.338;2023-12-20T04:13:20;99456.75;;;8.75;64.74
26859;BME280;14429;48.346;16.338;2023-12-20T04:15:46;99461.41;;;7.49;61.33
26859;BME280;14429;48.346;16.338;2023-12-20T04:18:11;99458.50;;;8.62;63.45
26859;BME280;14429;48.346;16.338;2023-12-20T04:20:38;99463.53;;;6.71;57.49
26859;BME280;14429;48.346;16.338;2023-12-20T04:23:03;99455.94;;;8.07;65.04
26859;BME280;14429;48.346;16.338;2023-12-20T04:25:29;99440.53;;;8.39;60.37
26859;BME280;14429;48.346;16.338;2023-12-20T04:27:54;99437.28;;;7.25;57.56
26859;BME280;14429;48.346;16.338;2023-12-20T04:30:19;99438.50;;;8.57;63.51
26859;BME280;14429;48.346;16.338;2023-12-20T04:32:45;99442.84;;;8.32;56.85
26859;BME280;14429;48.346;16.338;2023-12-20T04:35:10;99444.53;;;7.78;56.46
26859;BME280;14429;48.346;16.338;2023-12-20T04:37:37;99456.00;;;7.51;59.36
26859;BME280;14429;48.346;16.338;2023-12-20T04:40:03;99450.19;;;8.54;63.17
26859;BME280;14429;48.346;16.338;2023-12-20T04:42:28;99451.69;;;7.63;61.39
26859;BME280;14429;48.346;16.338;2023-12-20T04:44:54;99446.28;;;8.20;63.54
26859;BME280;14429;48.346;16.338;2023-12-20T04:47:19;99442.72;;;8.99;62.88
26859;BME280;14429;48.346;16.338;2023-12-20T04:49:45;99442.38;;;8.25;60.79
26859;BME280;14429;48.346;16.338;2023-12-20T04:52:10;99439.25;;;8.85;59.51
26859;BME280;14429;48.346;16.338;2023-12-20T04:54:37;99435.31;;;9.16;61.74
26859;BME280;14429;48.346;16.338;2023-12-20T04:57:03;99435.31;;;9.16;61.30
26859;BME280;14429;48.346;16.338;2023-12-20T04:59:28;99425.97;;;9.60;61.12
26859;BME280;14429;48.346;16.338;2023-12-20T05:01:53;99430.88;;;9.78;60.57
26859;BME280;14429;48.346;16.338;2023-12-20T05:04:19;99426.31;;;9.80;60.53
26859;BME280;14429;48.346;16.338;2023-12-20T05:06:44;99430.19;;;9.88;60.25
26859;BME280;14429;48.346;16.338;2023-12-20T05:09:10;99435.38;;;9.90;60.24
26859;BME280;14429;48.346;16.338;2023-12-20T05:11:36;99429.84;;;9.80;59.76
26859;BME280;14429;48.346;16.338;2023-12-20T05:14:02;99431.66;;;9.92;59.79
26859;BME280;14429;48.346;16.338;2023-12-20T05:16:27;99427.16;;;9.80;60.21
26859;BME280;14429;48.346;16.338;2023-12-20T05:18:53;99429.00;;;9.92;59.79
26859;BME280;14429;48.346;16.338;2023-12-20T05:21:18;99428.88;;;9.94;59.75
26859;BME280;14429;48.346;16.338;2023-12-20T05:23:43;99419.94;;;9.95;59.72
26859;BME280;14429;48.346;16.338;2023-12-20T05:26:09;99436.44;;;9.99;59.47
26859;BME280;14429;48.346;16.338;2023-12-20T05:28:36;99427.69;;;9.97;59.55
26859;BME280;14429;48.346;16.338;2023-12-20T05:31:01;99434.75;;;9.98;59.53
26859;BME280;14429;48.346;16.338;2023-12-20T05:33:26;99442.41;;;10.03;59.38
26859;BME280;14429;48.346;16.338;2023-12-20T05:35:52;99442.41;;;10.03;59.47
26859;BME280;14429;48.346;16.338;2023-12-20T05:38:17;99448.78;;;10.00;59.51
26859;BME280;14429;48.346;16.338;2023-12-20T05:40:43;99448.78;;;10.00;59.57
26859;BME280;14429;48.346;16.338;2023-12-20T05:43:08;99446.03;;;9.90;59.66
26859;BME280;14429;48.346;16.338;2023-12-20T05:45:35;99447.31;;;9.96;58.77
26859;BME280;14429;48.346;16.338;2023-12-20T05:48:00;99444.44;;;9.99;59.46
26859;BME280;14429;48.346;16.338;2023-12-20T05:50:26;99456.00;;;9.74;57.25
26859;BME280;14429;48.346;16.338;2023-12-20T05:52:51;99463.19;;;9.98;59.14
26859;BME280;14429;48.346;16.338;2023-12-20T05:55:16;99466.25;;;10.04;59.27
26859;BME280;14429;48.346;16.338;2023-12-20T05:57:42;99465.22;;;9.95;59.34
26859;BME280;14429;48.346;16.338;2023-12-20T06:00:09;99470.75;;;10.04;59.16
26859;BME280;14429;48.346;16.338;2023-12-20T06:02:35;99466.47;;;10.01;59.55
26859;BME280;14429;48.346;16.338;2023-12-20T06:05:01;99464.91;;;9.99;58.21
26859;BME280;14429;48.346;16.338;2023-12-20T06:07:26;99461.38;;;9.98;57.72
26859;BME280;14429;48.346;16.338;2023-12-20T06:09:52;99475.97;;;10.05;59.21
26859;BME280;14429;48.346;16.338;2023-12-20T06:12:17;99461.69;;;9.94;59.14
26859;BME280;14429;48.346;16.338;2023-12-20T06:14:42;99471.47;;;9.94;58.69
26859;BME280;14429;48.346;16.338;2023-12-20T06:17:08;99476.66;;;9.83;59.32
26859;BME280;14429;48.346;16.338;2023-12-20T06:19:35;99465.16;;;9.70;57.89
26859;BME280;14429;48.346;16.338;2023-12-20T06:22:00;99467.94;;;9.81;59.78
26859;BME280;14429;48.346;16.338;2023-12-20T06:24:25;99463.28;;;9.96;59.56
26859;BME280;14429;48.346;16.338;2023-12-20T06:26:51;99463.50;;;9.94;59.23
26859;BME280;14429;48.346;16.338;2023-12-20T06:29:16;99462.50;;;9.58;58.33
26859;BME280;14429;48.346;16.338;2023-12-20T06:31:42;99469.66;;;9.82;59.69
26859;BME280;14429;48.346;16.338;2023-12-20T06:34:07;99471.34;;;9.83;59.27
26859;BME280;14429;48.346;16.338;2023-12-20T06:36:34;99471.91;;;10.00;59.50
26859;BME280;14429;48.346;16.338;2023-12-20T06:38:59;99479.91;;;9.88;58.79
26859;BME280;14429;48.346;16.338;2023-12-20T06:41:25;99473.03;;;9.59;57.81
26859;BME280;14429;48.346;16.338;2023-12-20T06:43:50;99473.50;;;9.90;59.67
26859;BME280;14429;48.346;16.338;2023-12-20T06:46:15;99484.31;;;9.75;58.32
26859;BME280;14429;48.346;16.338;2023-12-20T06:48:41;99477.34;;;9.98;59.61
26859;BME280;14429;48.346;16.338;2023-12-20T06:51:06;99480.75;;;9.88;59.93
26859;BME280;14429;48.346;16.338;2023-12-20T06:53:33;99471.88;;;9.75;59.84
26859;BME280;14429;48.346;16.338;2023-12-20T06:55:58;99478.94;;;9.89;58.81
26859;BME280;14429;48.346;16.338;2023-12-20T06:58:24;99457.41;;;9.79;59.33
26859;BME280;14429;48.346;16.338;2023-12-20T07:00:50;99461.13;;;9.77;58.18
26859;BME280;14429;48.346;16.338;2023-12-20T07:03:15;99469.41;;;9.60;59.32
26859;BME280;14429;48.346;16.338;2023-12-20T07:05:41;99478.16;;;9.74;59.75
26859;BME280;14429;48.346;16.338;2023-12-20T07:08:06;99479.31;;;9.83;59.74
26859;BME280;14429;48.346;16.338;2023-12-20T07:10:33;99486.09;;;9.88;59.90
26859;BME280;14429;48.346;16.338;2023-12-20T07:12:59;99490.72;;;9.85;60.40
26859;BME280;14429;48.346;16.338;2023-12-20T07:15:24;99498.94;;;9.82;60.36
26859;BME280;14429;48.346;16.338;2023-12-20T07:17:49;99494.13;;;9.74;60.91
26859;BME280;14429;48.346;16.338;2023-12-20T07:20:15;99493.06;;;9.77;60.59
26859;BME280;14429;48.346;16.338;2023-12-20T07:22:40;99496.25;;;9.82;60.51
26859;BME280;14429;48.346;16.338;2023-12-20T07:25:06;99488.59;;;9.77;60.86
26859;BME280;14429;48.346;16.338;2023-12-20T07:27:33;99500.09;;;9.78;60.80
26859;BME280;14429;48.346;16.338;2023-12-20T07:29:59;99501.00;;;9.91;60.34
26859;BME280;14429;48.346;16.338;2023-12-20T07:32:24;99493.69;;;9.68;61.31
26859;BME280;14429;48.346;16.338;2023-12-20T07:34:49;99509.69;;;9.80;60.51
26859;BME280;14429;48.346;16.338;2023-12-20T07:37:15;99514.31;;;9.91;60.38
26859;BME280;14429;48.346;16.338;2023-12-20T07:39:40;99517.75;;;9.79;60.72
26859;BME280;14429;48.346;16.338;2023-12-20T07:42:06;99519.25;;;9.58;61.57
26859;BME280;14429;48.346;16.338;2023-12-20T07:44:33;99520.53;;;9.65;61.76
26859;BME280;14429;48.346;16.338;2023-12-20T07:46:58;99528.00;;;9.72;61.35
26859;BME280;14429;48.346;16.338;2023-12-20T07:49:24;99517.75;;;9.79;60.92
26859;BME280;14429;48.346;16.338;2023-12-20T07:51:49;99516.06;;;9.66;61.75
26859;BME280;14429;48.346;16.338;2023-12-20T07:54:15;99526.91;;;9.75;61.15
26859;BME280;14429;48.346;16.338;2023-12-20T07:56:40;99521.84;;;9.72;61.38
26859;BME280;14429;48.346;16.338;2023-12-20T07:59:06;99529.56;;;9.63;61.08
26859;BME280;14429;48.346;16.338;2023-12-20T08:01:33;99541.97;;;9.76;61.09
26859;BME280;14429;48.346;16.338;2023-12-20T08:03:58;99553.84;;;9.70;60.81
26859;BME280;14429;48.346;16.338;2023-12-20T08:06:23;99560.34;;;9.67;61.56
26859;BME280;14429;48.346;16.338;2023-12-20T08:08:49;99568.34;;;9.79;60.96
26859;BME280;14429;48.346;16.338;2023-12-20T08:11:14;99549.72;;;9.79;60.96
26859;BME280;14429;48.346;16.338;2023-12-20T08:13:40;99544.38;;;9.79;61.22
26859;BME280;14429;48.346;16.338;2023-12-20T08:16:05;99551.22;;;9.83;60.83
26859;BME280;14429;48.346;16.338;2023-12-20T08:18:32;99550.16;;;9.73;61.03
26859;BME280;14429;48.346;16.338;2023-12-20T08:20:58;99549.72;;;9.79;61.22
26859;BME280;14429;48.346;16.338;2023-12-20T08:23:23;99553.63;;;10.24;63.46
26859;BME280;14429;48.346;16.338;2023-12-20T08:25:48;99527.63;;;10.40;63.03
26859;BME280;14429;48.346;16.338;2023-12-20T08:28:14;99552.94;;;10.57;63.26
26859;BME280;14429;48.346;16.338;2023-12-20T08:30:39;99563.28;;;10.49;63.84
26859;BME280;14429;48.346;16.338;2023-12-20T08:33:06;99558.31;;;10.33;63.14
26859;BME280;14429;48.346;16.338;2023-12-20T08:35:33;99550.22;;;10.22;63.05
26859;BME280;14429;48.346;16.338;2023-12-20T08:37:58;99557.28;;;9.85;62.64
26859;BME280;14429;48.346;16.338;2023-12-20T08:40:23;99573.22;;;9.98;62.90
26859;BME280;14429;48.346;16.338;2023-12-20T08:42:49;99575.13;;;9.96;62.58
26859;BME280;14429;48.346;16.338;2023-12-20T08:45:14;99576.00;;;10.09;63.79
26859;BME280;14429;48.346;16.338;2023-12-20T08:47:40;99578.22;;;10.27;64.80
26859;BME280;14429;48.346;16.338;2023-12-20T08:50:06;99580.72;;;10.43;65.21
26859;BME280;14429;48.346;16.338;2023-12-20T08:52:33;99584.88;;;10.47;64.45
26859;BME280;14429;48.346;16.338;2023-12-20T08:54:59;99585.38;;;10.27;63.57
26859;BME280;14429;48.346;16.338;2023-12-20T08:57:24;99580.28;;;10.24;63.80
26859;BME280;14429;48.346;16.338;2023-12-20T08:59:49;99592.41;;;10.03;63.68
26859;BME280;14429;48.346;16.338;2023-12-20T11:57:56;99493.03;;;9.52;64.11
26859;BME280;14429;48.346;16.338;2023-12-20T12:00:21;99495.63;;;9.66;63.48
26859;BME280;14429;48.346;16.338;2023-12-20T12:02:57;99483.03;;;9.68;63.52
26859;BME280;14429;48.346;16.338;2023-12-20T12:05:23;99491.13;;;9.54;63.85
26859;BME280;14429;48.346;16.338;2023-12-20T12:07:49;99477.97;;;9.65;63.35
26859;BME280;14429;48.346;16.338;2023-12-20T12:10:14;99485.69;;;9.68;63.39
26859;BME280;14429;48.346;16.338;2023-12-20T12:12:40;99490.94;;;9.69;63.42
26859;BME280;14429;48.346;16.338;2023-12-20T12:15:07;99487.09;;;9.73;63.24
26859;BME280;14429;48.346;16.338;2023-12-20T12:17:33;99477.50;;;9.59;63.75
26859;BME280;14429;48.346;16.338;2023-12-20T12:20:02;99486.25;;;9.73;63.01
26859;BME280;14429;48.346;16.338;2023-12-20T12:22:28;99473.91;;;9.72;63.29
26859;BME280;14429;48.346;16.338;2023-12-20T12:24:53;99470.28;;;9.73;63.13
26859;BME280;14429;48.346;16.338;2023-12-20T12:27:18;99482.84;;;9.71;63.44
26859;BME280;14429;48.346;16.338;2023-12-20T12:30:01;99489.91;;;9.72;63.26
26859;BME280;14429;48.346;16.338;2023-12-20T12:32:28;99477.41;;;9.60;63.66
26859;BME280;14429;48.346;16.338;2023-12-20T12:34:54;99471.34;;;9.70;63.22
26859;BME280;14429;48.346;16.338;2023-12-20T12:37:19;99459.41;;;9.64;63.30
26859;BME280;14429;48.346;16.338;2023-12-20T12:39:46;99453.03;;;9.66;63.14
26859;BME280;14429;48.346;16.338;2023-12-20T12:42:11;99458.03;;;9.70;63.09
26859;BME280;14429;48.346;16.338;2023-12-20T12:44:37;99454.94;;;9.64;63.42
26859;BME280;14429;48.346;16.338;2023-12-20T12:47:03;99454.53;;;9.70;63.10
26859;BME280;14429;48.346;16.338;2023-12-20T12:49:29;99445.16;;;9.77;63.02
26859;BME280;14429;48.346;16.338;2023-12-20T12:51:55;99444.41;;;9.75;62.89
26859;BME280;14429;48.346;16.338;2023-12-20T12:54:20;99457.06;;;9.71;63.12
26859;BME280;14429;48.346;16.338;2023-12-20T12:56:46;99448.69;;;9.65;63.20
26859;BME280;14429;48.346;16.338;2023-12-20T12:59:11;99451.09;;;9.68;63.46
26859;BME280;14429;48.346;16.338;2023-12-20T13:01:37;99449.19;;;9.70;63.09
26859;BME280;14429;48.346;16.338;2023-12-20T13:04:02;99429.59;;;9.71;63.22
26859;BME280;14429;48.346;16.338;2023-12-20T13:06:29;99429.41;;;9.74;63.03
26859;BME280;14429;48.346;16.338;2023-12-20T13:08:54;99444.72;;;9.70;63.11
26859;BME280;14429;48.346;16.338;2023-12-20T13:11:20;99450.06;;;9.58;63.42
26859;BME280;14429;48.346;16.338;2023-12-20T13:13:45;99440.25;;;9.71;63.21
26859;BME280;14429;48.346;16.338;2023-12-20T13:16:11;99437.28;;;9.63;63.21
26859;BME280;14429;48.346;16.338;2023-12-20T13:18:36;99432.81;;;9.76;62.97
26859;BME280;14429;48.346;16.338;2023-12-20T13:21:02;99428.13;;;9.67;62.73
26859;BME280;14429;48.346;16.338;2023-12-20T13:23:29;99434.94;;;9.71;63.09
26859;BME280;14429;48.346;16.338;2023-12-20T13:25:54;99456.78;;;9.76;62.99
26859;BME280;14429;48.346;16.338;2023-12-20T13:28:19;99467.06;;;9.68;62.99
26859;BME280;14429;48.346;16.338;2023-12-20T13:30:45;99469.66;;;9.69;63.37
26859;BME280;14429;48.346;16.338;2023-12-20T13:33:11;99460.69;;;9.83;62.75
26859;BME280;14429;48.346;16.338;2023-12-20T13:35:36;99452.63;;;9.84;62.75
26859;BME280;14429;48.346;16.338;2023-12-20T13:38:01;99455.59;;;9.80;62.63
26859;BME280;14429;48.346;16.338;2023-12-20T13:40:29;99459.75;;;9.84;62.87
26859;BME280;14429;48.346;16.338;2023-12-20T13:42:54;99468.69;;;9.83;62.87
26859;BME280;14429;48.346;16.338;2023-12-20T13:45:20;99454.97;;;9.89;62.53
26859;BME280;14429;48.346;16.338;2023-12-20T13:47:45;99461.34;;;9.74;62.92
26859;BME280;14429;48.346;16.338;2023-12-20T13:50:10;99448.97;;;9.85;62.76
26859;BME280;14429;48.346;16.338;2023-12-20T13:52:36;99459.00;;;9.94;62.42
26859;BME280;14429;48.346;16.338;2023-12-20T13:55:01;99465.06;;;9.71;62.83
26859;BME280;14429;48.346;16.338;2023-12-20T13:57:28;99461.34;;;9.74;62.60
26859;BME280;14429;48.346;16.338;2023-12-20T13:59:54;99473.28;;;9.81;62.73
26859;BME280;14429;48.346;16.338;2023-12-20T14:02:19;99468.91;;;9.80;62.62
26859;BME280;14429;48.346;16.338;2023-12-20T14:04:44;99462.59;;;9.56;62.38
26859;BME280;14429;48.346;16.338;2023-12-20T14:07:10;99473.03;;;9.59;63.41
26859;BME280;14429;48.346;16.338;2023-12-20T14:09:35;99465.84;;;9.86;62.82
26859;BME280;14429;48.346;16.338;2023-12-20T14:12:01;99475.00;;;9.94;62.42
26859;BME280;14429;48.346;16.338;2023-12-20T14:14:28;99478.28;;;9.97;62.17
26859;BME280;14429;48.346;16.338;2023-12-20T14:16:53;99479.16;;;9.86;62.21
26859;BME280;14429;48.346;16.338;2023-12-20T14:19:18;99479.78;;;9.89;62.48
26859;BME280;14429;48.346;16.338;2023-12-20T14:21:44;99472.75;;;9.76;62.87
26859;BME280;14429;48.346;16.338;2023-12-20T14:24:09;99479.06;;;9.87;62.44
26859;BME280;14429;48.346;16.338;2023-12-20T14:26:35;99475.72;;;9.84;62.45
26859;BME280;14429;48.346;16.338;2023-12-20T14:29:00;99468.41;;;9.87;62.71
26859;BME280;14429;48.346;16.338;2023-12-20T14:31:27;99466.47;;;9.89;62.49
26859;BME280;14429;48.346;16.338;2023-12-20T14:33:52;99474.69;;;9.86;62.56
26859;BME280;14429;48.346;16.338;2023-12-20T14:36:17;99477.34;;;9.86;62.51
26859;BME280;14429;48.346;16.338;2023-12-20T14:38:43;99477.13;;;9.89;62.46
26859;BME280;14429;48.346;16.338;2023-12-20T14:41:09;99481.50;;;9.90;62.47
26859;BME280;14429;48.346;16.338;2023-12-20T14:43:34;99482.47;;;9.89;62.58
26859;BME280;14429;48.346;16.338;2023-12-20T14:46:00;99479.72;;;9.91;62.59
26859;BME280;14429;48.346;16.338;2023-12-20T14:48:26;99492.06;;;9.92;62.43
26859;BME280;14429;48.346;16.338;2023-12-20T14:50:52;99492.13;;;9.90;62.44
26859;BME280;14429;48.346;16.338;2023-12-20T14:53:17;99492.25;;;9.89;62.39
26859;BME280;14429;48.346;16.338;2023-12-20T14:55:43;99496.41;;;9.93;62.31
26859;BME280;14429;48.346;16.338;2023-12-20T14:58:08;99493.97;;;9.90;62.26
26859;BME280;14429;48.346;16.338;2023-12-20T15:00:34;99491.28;;;9.90;62.41
26859;BME280;14429;48.346;16.338;2023-12-20T15:03:00;99497.78;;;9.86;62.05
26859;BME280;14429;48.346;16.338;2023-12-20T15:05:27;99493.97;;;9.90;62.44
26859;BME280;14429;48.346;16.338;2023-12-20T15:07:53;99493.97;;;9.90;62.38
26859;BME280;14429;48.346;16.338;2023-12-20T15:10:18;99491.41;;;9.88;62.52
26859;BME280;14429;48.346;16.338;2023-12-20T15:12:44;99482.00;;;9.83;62.47
26859;BME280;14429;48.346;16.338;2023-12-20T15:15:09;99476.66;;;9.83;62.76
26859;BME280;14429;48.346;16.338;2023-12-20T15:17:35;99484.41;;;9.87;62.54
26859;BME280;14429;48.346;16.338;2023-12-20T15:20:00;99476.28;;;9.89;62.28
26859;BME280;14429;48.346;16.338;2023-12-20T15:22:27;99481.63;;;9.89;62.58
26859;BME280;14429;48.346;16.338;2023-12-20T15:24:53;99486.72;;;9.92;62.37
26859;BME280;14429;48.346;16.338;2023-12-20T15:27:18;99483.72;;;9.84;62.36
26859;BME280;14429;48.346;16.338;2023-12-20T15:29:43;99492.47;;;9.86;62.36
26859;BME280;14429;48.346;16.338;2023-12-20T15:32:09;99496.91;;;9.85;62.53
26859;BME280;14429;48.346;16.338;2023-12-20T15:34:34;99495.31;;;9.83;62.60
26859;BME280;14429;48.346;16.338;2023-12-20T15:36:59;99502.06;;;9.88;62.46
26859;BME280;14429;48.346;16.338;2023-12-20T15:39:26;99500.38;;;9.87;62.45
26859;BME280;14429;48.346;16.338;2023-12-20T15:41:52;99501.09;;;9.89;62.30
26859;BME280;14429;48.346;16.338;2023-12-20T15:44:17;99510.91;;;9.89;62.31